Back to Top

Language: 

My Weather Underground Personal Weather Station Historical Data with Graphs...

Delerius Weather Station Historical Data
Daily Summary for March 9, 2018 Units:  Both    English   Metric
« Previous Day
Next Day »
Daily Weekly Monthly Yearly Custom
  High: Low: Average:
Temperature: 50.9 °F /  10.5 °C 31.5 °F /  -0.3 °C 42 °F /  5.6 °C
Dew Point: 41.3 °F /  5.2 °C 29.6 °F /  -1.3 °C 37.3 °F /  2.9 °C
Humidity: 96 % 63 % 84 %
Wind Speed: 9.0 mph /  14.5 km/h - 3.7 mph /  6 km/h
Wind Gust: 14.0 mph /  22.5 km/h - -
Wind:- - SSE
Pressure: 29.60 in /  1002.3 hPa 29.37 in /  994.5 hPa -
Precipitation: 0.14 in /  3.56 mm    
Historical Graphs
 
 
Tabular Data for March 9, 2018
Time Temperature Dew Point Pressure Wind Wind Speed Wind Gust Humidity Rainfall Rate (Hourly) solar Conditions
00:01 38.7 °F /  3.7 °C 34.8 °F /  1.6 °C 29.53 in /  999.9 hPa West 2.0 mph /  3.2 km/h 3.0 mph /  4.8 km/h 86 % 0.00 in /  0 mm 0 W/m2
00:06 38.5 °F /  3.6 °C 34.7 °F /  1.5 °C 29.53 in /  999.9 hPa West 1.0 mph /  1.6 km/h 2.0 mph /  3.2 km/h 86 % 0.00 in /  0 mm 0 W/m2
00:11 38.5 °F /  3.6 °C 34.7 °F /  1.5 °C 29.53 in /  999.9 hPa West 1.0 mph /  1.6 km/h 3.0 mph /  4.8 km/h 86 % 0.00 in /  0 mm 0 W/m2
00:16 38.3 °F /  3.5 °C 34.8 °F /  1.6 °C 29.53 in /  999.9 hPa Calm   2.0 mph /  3.2 km/h 87 % 0.00 in /  0 mm 0 W/m2
00:21 38.1 °F /  3.4 °C 34.6 °F /  1.4 °C 29.53 in /  999.9 hPa Calm     87 % 0.00 in /  0 mm 0 W/m2
00:26 37.9 °F /  3.3 °C 34.4 °F /  1.3 °C 29.54 in /  1000.2 hPa Calm     87 % 0.00 in /  0 mm 0 W/m2
00:31 37.9 °F /  3.3 °C 34.4 °F /  1.3 °C 29.54 in /  1000.2 hPa Calm     87 % 0.00 in /  0 mm 0 W/m2
00:36 37.9 °F /  3.3 °C 34.4 °F /  1.3 °C 29.54 in /  1000.2 hPa WSW 2.0 mph /  3.2 km/h 5.0 mph /  8 km/h 87 % 0.00 in /  0 mm 0 W/m2
00:41 37.8 °F /  3.2 °C 34.5 °F /  1.4 °C 29.54 in /  1000.2 hPa SW 3.0 mph /  4.8 km/h 7.0 mph /  11.3 km/h 88 % 0.00 in /  0 mm 0 W/m2
00:46 37.9 °F /  3.3 °C 34.7 °F /  1.5 °C 29.54 in /  1000.2 hPa WSW 2.0 mph /  3.2 km/h 6.0 mph /  9.7 km/h 88 % 0.00 in /  0 mm 0 W/m2
00:51 37.9 °F /  3.3 °C 34.7 °F /  1.5 °C 29.54 in /  1000.2 hPa WSW 2.0 mph /  3.2 km/h 4.0 mph /  6.4 km/h 88 % 0.00 in /  0 mm 0 W/m2
00:56 37.9 °F /  3.3 °C 34.7 °F /  1.5 °C 29.54 in /  1000.2 hPa WSW 3.0 mph /  4.8 km/h 6.0 mph /  9.7 km/h 88 % 0.00 in /  0 mm 0 W/m2
01:01 37.9 °F /  3.3 °C 34.7 °F /  1.5 °C 29.55 in /  1000.6 hPa WSW 4.0 mph /  6.4 km/h 7.0 mph /  11.3 km/h 88 % 0.00 in /  0 mm 0 W/m2
01:02 37.9 °F /  3.3 °C 34.7 °F /  1.5 °C 29.55 in /  1000.6 hPa SW 4.0 mph /  6.4 km/h 7.0 mph /  11.3 km/h 88 % 0.00 in /  0 mm 0 W/m2
01:07 37.9 °F /  3.3 °C 34.7 °F /  1.5 °C 29.55 in /  1000.6 hPa WSW 3.0 mph /  4.8 km/h 5.0 mph /  8 km/h 88 % 0.00 in /  0 mm 0 W/m2
01:12 37.9 °F /  3.3 °C 34.7 °F /  1.5 °C 29.55 in /  1000.6 hPa WSW 3.0 mph /  4.8 km/h 5.0 mph /  8 km/h 88 % 0.00 in /  0 mm 0 W/m2
01:17 37.8 °F /  3.2 °C 34.5 °F /  1.4 °C 29.55 in /  1000.6 hPa WSW 2.0 mph /  3.2 km/h 5.0 mph /  8 km/h 88 % 0.00 in /  0 mm 0 W/m2
01:22 37.6 °F /  3.1 °C 34.3 °F /  1.3 °C 29.55 in /  1000.6 hPa WSW 3.0 mph /  4.8 km/h 4.0 mph /  6.4 km/h 88 % 0.00 in /  0 mm 0 W/m2
01:27 37.2 °F /  2.9 °C 34.0 °F /  1.1 °C 29.55 in /  1000.6 hPa WSW 3.0 mph /  4.8 km/h 5.0 mph /  8 km/h 88 % 0.00 in /  0 mm 0 W/m2
01:32 37.0 °F /  2.8 °C 33.8 °F /  1 °C 29.55 in /  1000.6 hPa WSW 4.0 mph /  6.4 km/h 5.0 mph /  8 km/h 88 % 0.00 in /  0 mm 0 W/m2
01:37 36.9 °F /  2.7 °C 33.9 °F /  1.1 °C 29.55 in /  1000.6 hPa West 5.0 mph /  8 km/h 7.0 mph /  11.3 km/h 89 % 0.00 in /  0 mm 0 W/m2
01:42 37.0 °F /  2.8 °C 34.1 °F /  1.2 °C 29.55 in /  1000.6 hPa WNW 6.0 mph /  9.7 km/h 9.0 mph /  14.5 km/h 89 % 0.00 in /  0 mm 0 W/m2
01:47 37.0 °F /  2.8 °C 34.4 °F /  1.3 °C 29.56 in /  1000.9 hPa WNW 7.0 mph /  11.3 km/h 9.0 mph /  14.5 km/h 90 % 0.00 in /  0 mm 0 W/m2
01:52 37.0 °F /  2.8 °C 34.4 °F /  1.3 °C 29.56 in /  1000.9 hPa WNW 6.0 mph /  9.7 km/h 8.0 mph /  12.9 km/h 90 % 0.00 in /  0 mm 0 W/m2
01:57 37.2 °F /  2.9 °C 34.6 °F /  1.4 °C 29.56 in /  1000.9 hPa WNW 6.0 mph /  9.7 km/h 8.0 mph /  12.9 km/h 90 % 0.00 in /  0 mm 0 W/m2
02:02 37.2 °F /  2.9 °C 34.6 °F /  1.4 °C 29.56 in /  1000.9 hPa WNW 6.0 mph /  9.7 km/h 8.0 mph /  12.9 km/h 90 % 0.00 in /  0 mm 0 W/m2
02:07 37.2 °F /  2.9 °C 34.6 °F /  1.4 °C 29.56 in /  1000.9 hPa WNW 5.0 mph /  8 km/h 8.0 mph /  12.9 km/h 90 % 0.00 in /  0 mm 0 W/m2
02:12 37.0 °F /  2.8 °C 34.4 °F /  1.3 °C 29.56 in /  1000.9 hPa WNW 5.0 mph /  8 km/h 6.0 mph /  9.7 km/h 90 % 0.00 in /  0 mm 0 W/m2
02:17 37.0 °F /  2.8 °C 34.4 °F /  1.3 °C 29.56 in /  1000.9 hPa Calm   4.0 mph /  6.4 km/h 90 % 0.00 in /  0 mm 0 W/m2
02:22 36.5 °F /  2.5 °C 33.6 °F /  0.9 °C 29.56 in /  1000.9 hPa Calm     89 % 0.00 in /  0 mm 0 W/m2
02:27 36.1 °F /  2.3 °C 32.9 °F /  0.5 °C 29.56 in /  1000.9 hPa Calm   1.0 mph /  1.6 km/h 88 % 0.00 in /  0 mm 0 W/m2
02:32 35.6 °F /  2 °C 32.4 °F /  0.2 °C 29.56 in /  1000.9 hPa Calm   1.0 mph /  1.6 km/h 88 % 0.00 in /  0 mm 0 W/m2
02:37 35.2 °F /  1.8 °C 32.3 °F /  0.2 °C 29.57 in /  1001.2 hPa Calm     89 % 0.00 in /  0 mm 0 W/m2
02:42 34.9 °F /  1.6 °C 32.0 °F /  0 °C 29.57 in /  1001.2 hPa West 1.0 mph /  1.6 km/h 2.0 mph /  3.2 km/h 89 % 0.00 in /  0 mm 0 W/m2
02:47 34.7 °F /  1.5 °C 32.1 °F /  0.1 °C 29.57 in /  1001.2 hPa West 2.0 mph /  3.2 km/h 3.0 mph /  4.8 km/h 90 % 0.00 in /  0 mm 0 W/m2
02:52 34.5 °F /  1.4 °C 31.9 °F /  -0.1 °C 29.56 in /  1000.9 hPa West 1.0 mph /  1.6 km/h 2.0 mph /  3.2 km/h 90 % 0.00 in /  0 mm 0 W/m2
02:57 34.3 °F /  1.3 °C 32.0 °F /  0 °C 29.57 in /  1001.2 hPa West 1.0 mph /  1.6 km/h 2.0 mph /  3.2 km/h 91 % 0.00 in /  0 mm 0 W/m2
03:02 34.3 °F /  1.3 °C 31.7 °F /  -0.2 °C 29.57 in /  1001.2 hPa West 1.0 mph /  1.6 km/h 4.0 mph /  6.4 km/h 90 % 0.00 in /  0 mm 0 W/m2
03:07 34.2 °F /  1.2 °C 31.8 °F /  -0.1 °C 29.57 in /  1001.2 hPa West 2.0 mph /  3.2 km/h 3.0 mph /  4.8 km/h 91 % 0.00 in /  0 mm 0 W/m2
03:12 34.2 °F /  1.2 °C 31.8 °F /  -0.1 °C 29.57 in /  1001.2 hPa Calm     91 % 0.00 in /  0 mm 0 W/m2
03:17 34.0 °F /  1.1 °C 31.6 °F /  -0.2 °C 29.57 in /  1001.2 hPa Calm     91 % 0.00 in /  0 mm 0 W/m2
03:22 33.6 °F /  0.9 °C 31.3 °F /  -0.4 °C 29.57 in /  1001.2 hPa Calm     91 % 0.00 in /  0 mm 0 W/m2
03:27 33.3 °F /  0.7 °C 30.9 °F /  -0.6 °C 29.57 in /  1001.2 hPa Calm     91 % 0.00 in /  0 mm 0 W/m2
03:32 33.1 °F /  0.6 °C 30.7 °F /  -0.7 °C 29.57 in /  1001.2 hPa Calm     91 % 0.00 in /  0 mm 0 W/m2
03:38 32.7 °F /  0.4 °C 30.4 °F /  -0.9 °C 29.57 in /  1001.2 hPa Calm     91 % 0.00 in /  0 mm 0 W/m2
03:43 32.4 °F /  0.2 °C 30.0 °F /  -1.1 °C 29.57 in /  1001.2 hPa Calm     91 % 0.00 in /  0 mm 0 W/m2
03:48 32.4 °F /  0.2 °C 30.0 °F /  -1.1 °C 29.57 in /  1001.2 hPa Calm     91 % 0.00 in /  0 mm 0 W/m2
03:53 32.4 °F /  0.2 °C 30.3 °F /  -0.9 °C 29.57 in /  1001.2 hPa West 3.0 mph /  4.8 km/h 4.0 mph /  6.4 km/h 92 % 0.00 in /  0 mm 0 W/m2
03:58 32.4 °F /  0.2 °C 30.6 °F /  -0.8 °C 29.57 in /  1001.2 hPa Calm     93 % 0.00 in /  0 mm 0 W/m2
04:03 32.4 °F /  0.2 °C 30.3 °F /  -0.9 °C 29.57 in /  1001.2 hPa Calm     92 % 0.00 in /  0 mm 0 W/m2
04:08 32.2 °F /  0.1 °C 30.1 °F /  -1.1 °C 29.58 in /  1001.6 hPa Calm     92 % 0.00 in /  0 mm 0 W/m2
04:13 32.0 °F /  0 °C 29.9 °F /  -1.2 °C 29.58 in /  1001.6 hPa Calm     92 % 0.00 in /  0 mm 0 W/m2
04:18 31.8 °F /  -0.1 °C 29.8 °F /  -1.2 °C 29.58 in /  1001.6 hPa Calm     92 % 0.00 in /  0 mm 0 W/m2
04:23 31.6 °F /  -0.2 °C 29.6 °F /  -1.3 °C 29.58 in /  1001.6 hPa Calm     92 % 0.00 in /  0 mm 0 W/m2
04:28 31.8 °F /  -0.1 °C 30.0 °F /  -1.1 °C 29.58 in /  1001.6 hPa West 1.0 mph /  1.6 km/h 4.0 mph /  6.4 km/h 93 % 0.00 in /  0 mm 0 W/m2
04:33 31.8 °F /  -0.1 °C 30.0 °F /  -1.1 °C 29.58 in /  1001.6 hPa Calm   1.0 mph /  1.6 km/h 93 % 0.00 in /  0 mm 0 W/m2
04:38 32.2 °F /  0.1 °C 30.6 °F /  -0.8 °C 29.58 in /  1001.6 hPa Calm   1.0 mph /  1.6 km/h 94 % 0.00 in /  0 mm 0 W/m2
04:43 32.2 °F /  0.1 °C 30.6 °F /  -0.8 °C 29.58 in /  1001.6 hPa West 1.0 mph /  1.6 km/h 2.0 mph /  3.2 km/h 94 % 0.00 in /  0 mm 0 W/m2
04:48 32.4 °F /  0.2 °C 30.8 °F /  -0.7 °C 29.58 in /  1001.6 hPa Calm   2.0 mph /  3.2 km/h 94 % 0.00 in /  0 mm 0 W/m2
04:53 32.5 °F /  0.3 °C 31.0 °F /  -0.6 °C 29.58 in /  1001.6 hPa Calm     94 % 0.00 in /  0 mm 0 W/m2
04:58 32.4 °F /  0.2 °C 30.8 °F /  -0.7 °C 29.58 in /  1001.6 hPa West 1.0 mph /  1.6 km/h 4.0 mph /  6.4 km/h 94 % 0.00 in /  0 mm 0 W/m2
05:03 31.8 °F /  -0.1 °C 30.0 °F /  -1.1 °C 29.58 in /  1001.6 hPa West 2.0 mph /  3.2 km/h 4.0 mph /  6.4 km/h 93 % 0.00 in /  0 mm 0 W/m2
05:08 31.6 °F /  -0.2 °C 29.8 °F /  -1.2 °C 29.58 in /  1001.6 hPa West 3.0 mph /  4.8 km/h 5.0 mph /  8 km/h 93 % 0.00 in /  0 mm 0 W/m2
05:13 31.6 °F /  -0.2 °C 30.1 °F /  -1.1 °C 29.58 in /  1001.6 hPa West 3.0 mph /  4.8 km/h 5.0 mph /  8 km/h 94 % 0.00 in /  0 mm 0 W/m2
05:18 31.8 °F /  -0.1 °C 30.3 °F /  -0.9 °C 29.58 in /  1001.6 hPa Calm   2.0 mph /  3.2 km/h 94 % 0.00 in /  0 mm 0 W/m2
05:23 31.8 °F /  -0.1 °C 30.3 °F /  -0.9 °C 29.58 in /  1001.6 hPa Calm     94 % 0.00 in /  0 mm 0 W/m2
05:28 31.8 °F /  -0.1 °C 30.3 °F /  -0.9 °C 29.58 in /  1001.6 hPa Calm     94 % 0.00 in /  0 mm 0 W/m2
05:33 31.6 °F /  -0.2 °C 30.1 °F /  -1.1 °C 29.59 in /  1001.9 hPa Calm     94 % 0.00 in /  0 mm 0 W/m2
05:38 31.5 °F /  -0.3 °C 29.9 °F /  -1.2 °C 29.59 in /  1001.9 hPa Calm     94 % 0.00 in /  0 mm 0 W/m2
05:43 31.5 °F /  -0.3 °C 29.9 °F /  -1.2 °C 29.59 in /  1001.9 hPa Calm     94 % 0.00 in /  0 mm 0 W/m2
05:48 31.6 °F /  -0.2 °C 30.1 °F /  -1.1 °C 29.59 in /  1001.9 hPa Calm     94 % 0.00 in /  0 mm 0 W/m2
05:53 31.6 °F /  -0.2 °C 30.1 °F /  -1.1 °C 29.59 in /  1001.9 hPa Calm     94 % 0.00 in /  0 mm 0 W/m2
05:58 31.8 °F /  -0.1 °C 30.6 °F /  -0.8 °C 29.58 in /  1001.6 hPa Calm   1.0 mph /  1.6 km/h 95 % 0.00 in /  0 mm 0 W/m2
06:03 32.5 °F /  0.3 °C 31.3 °F /  -0.4 °C 29.59 in /  1001.9 hPa Calm     95 % 0.00 in /  0 mm 0 W/m2
06:08 32.9 °F /  0.5 °C 31.6 °F /  -0.2 °C 29.59 in /  1001.9 hPa Calm     95 % 0.00 in /  0 mm 0 W/m2
06:13 33.1 °F /  0.6 °C 31.8 °F /  -0.1 °C 29.59 in /  1001.9 hPa Calm   2.0 mph /  3.2 km/h 95 % 0.00 in /  0 mm 0 W/m2
06:18 33.1 °F /  0.6 °C 31.8 °F /  -0.1 °C 29.59 in /  1001.9 hPa Calm     95 % 0.00 in /  0 mm 0 W/m2
06:23 33.1 °F /  0.6 °C 31.8 °F /  -0.1 °C 29.59 in /  1001.9 hPa Calm   2.0 mph /  3.2 km/h 95 % 0.00 in /  0 mm 0 W/m2
06:28 32.5 °F /  0.3 °C 31.0 °F /  -0.6 °C 29.59 in /  1001.9 hPa Calm     94 % 0.00 in /  0 mm 0 W/m2
06:33 32.4 °F /  0.2 °C 30.8 °F /  -0.7 °C 29.59 in /  1001.9 hPa Calm     94 % 0.00 in /  0 mm 5 W/m2
06:38 32.2 °F /  0.1 °C 30.6 °F /  -0.8 °C 29.59 in /  1001.9 hPa Calm   1.0 mph /  1.6 km/h 94 % 0.00 in /  0 mm 9 W/m2
06:43 32.4 °F /  0.2 °C 31.1 °F /  -0.5 °C 29.59 in /  1001.9 hPa West 1.0 mph /  1.6 km/h 4.0 mph /  6.4 km/h 95 % 0.00 in /  0 mm 11 W/m2
06:48 32.4 °F /  0.2 °C 31.1 °F /  -0.5 °C 29.59 in /  1001.9 hPa West 4.0 mph /  6.4 km/h 6.0 mph /  9.7 km/h 95 % 0.00 in /  0 mm 12 W/m2
06:53 32.5 °F /  0.3 °C 31.3 °F /  -0.4 °C 29.59 in /  1001.9 hPa West 5.0 mph /  8 km/h 5.0 mph /  8 km/h 95 % 0.00 in /  0 mm 14 W/m2
06:58 32.7 °F /  0.4 °C 31.4 °F /  -0.3 °C 29.60 in /  1002.3 hPa West 2.0 mph /  3.2 km/h 4.0 mph /  6.4 km/h 95 % 0.00 in /  0 mm 18 W/m2
07:03 32.9 °F /  0.5 °C 31.6 °F /  -0.2 °C 29.59 in /  1001.9 hPa Calm     95 % 0.00 in /  0 mm 21 W/m2
07:08 33.1 °F /  0.6 °C 31.8 °F /  -0.1 °C 29.59 in /  1001.9 hPa Calm     95 % 0.00 in /  0 mm 26 W/m2
07:13 33.1 °F /  0.6 °C 31.8 °F /  -0.1 °C 29.60 in /  1002.3 hPa Calm     95 % 0.00 in /  0 mm 54 W/m2
07:18 33.4 °F /  0.8 °C 32.2 °F /  0.1 °C 29.60 in /  1002.3 hPa Calm     95 % 0.00 in /  0 mm 70 W/m2
07:23 34.0 °F /  1.1 °C 33.0 °F /  0.6 °C 29.60 in /  1002.3 hPa West 4.0 mph /  6.4 km/h 5.0 mph /  8 km/h 96 % 0.00 in /  0 mm 84 W/m2
07:28 34.3 °F /  1.3 °C 33.3 °F /  0.7 °C 29.60 in /  1002.3 hPa West 4.0 mph /  6.4 km/h 5.0 mph /  8 km/h 96 % 0.00 in /  0 mm 88 W/m2
07:33 34.9 °F /  1.6 °C 33.9 °F /  1.1 °C 29.60 in /  1002.3 hPa WNW 2.0 mph /  3.2 km/h 5.0 mph /  8 km/h 96 % 0.00 in /  0 mm 97 W/m2
07:38 35.2 °F /  1.8 °C 34.2 °F /  1.2 °C 29.60 in /  1002.3 hPa WNW 1.0 mph /  1.6 km/h 4.0 mph /  6.4 km/h 96 % 0.00 in /  0 mm 125 W/m2
07:43 35.8 °F /  2.1 °C 34.8 °F /  1.6 °C 29.60 in /  1002.3 hPa Calm     96 % 0.00 in /  0 mm 123 W/m2
07:48 35.8 °F /  2.1 °C 34.5 °F /  1.4 °C 29.60 in /  1002.3 hPa WNW 2.0 mph /  3.2 km/h 4.0 mph /  6.4 km/h 95 % 0.00 in /  0 mm 62 W/m2
07:53 35.8 °F /  2.1 °C 34.5 °F /  1.4 °C 29.60 in /  1002.3 hPa WNW 2.0 mph /  3.2 km/h 5.0 mph /  8 km/h 95 % 0.00 in /  0 mm 142 W/m2
07:58 36.1 °F /  2.3 °C 34.8 °F /  1.6 °C 29.60 in /  1002.3 hPa Calm   2.0 mph /  3.2 km/h 95 % 0.00 in /  0 mm 171 W/m2
08:04 36.9 °F /  2.7 °C 35.8 °F /  2.1 °C 29.60 in /  1002.3 hPa Calm     96 % 0.00 in /  0 mm 120 W/m2
08:09 37.4 °F /  3 °C 36.4 °F /  2.4 °C 29.60 in /  1002.3 hPa Calm     96 % 0.00 in /  0 mm 207 W/m2
08:14 37.8 °F /  3.2 °C 36.5 °F /  2.5 °C 29.60 in /  1002.3 hPa Calm     95 % 0.00 in /  0 mm 211 W/m2
08:19 38.7 °F /  3.7 °C 37.6 °F /  3.1 °C 29.60 in /  1002.3 hPa Calm     96 % 0.00 in /  0 mm 223 W/m2
08:24 39.6 °F /  4.2 °C 38.2 °F /  3.4 °C 29.60 in /  1002.3 hPa Calm     95 % 0.00 in /  0 mm 236 W/m2
08:29 40.6 °F /  4.8 °C 39.3 °F /  4.1 °C 29.60 in /  1002.3 hPa Calm     95 % 0.00 in /  0 mm 246 W/m2
08:34 41.7 °F /  5.4 °C 40.1 °F /  4.5 °C 29.60 in /  1002.3 hPa Calm     94 % 0.00 in /  0 mm 260 W/m2
08:39 42.6 °F /  5.9 °C 40.2 °F /  4.6 °C 29.60 in /  1002.3 hPa WSW 1.0 mph /  1.6 km/h 4.0 mph /  6.4 km/h 91 % 0.00 in /  0 mm 278 W/m2
08:44 42.3 °F /  5.7 °C 39.2 °F /  4 °C 29.60 in /  1002.3 hPa SW 1.0 mph /  1.6 km/h 2.0 mph /  3.2 km/h 89 % 0.00 in /  0 mm 285 W/m2
08:49 42.3 °F /  5.7 °C 39.0 °F /  3.9 °C 29.60 in /  1002.3 hPa SW 1.0 mph /  1.6 km/h 4.0 mph /  6.4 km/h 88 % 0.00 in /  0 mm 302 W/m2
08:54 42.1 °F /  5.6 °C 38.5 °F /  3.6 °C 29.60 in /  1002.3 hPa Calm     87 % 0.00 in /  0 mm 315 W/m2
08:59 42.4 °F /  5.8 °C 38.8 °F /  3.8 °C 29.60 in /  1002.3 hPa Calm     87 % 0.00 in /  0 mm 274 W/m2
09:04 42.8 °F /  6 °C 38.9 °F /  3.8 °C 29.60 in /  1002.3 hPa SW 1.0 mph /  1.6 km/h 2.0 mph /  3.2 km/h 86 % 0.00 in /  0 mm 318 W/m2
09:09 43.2 °F /  6.2 °C 39.0 °F /  3.9 °C 29.59 in /  1001.9 hPa ESE 1.0 mph /  1.6 km/h 3.0 mph /  4.8 km/h 85 % 0.00 in /  0 mm 367 W/m2
09:14 43.5 °F /  6.4 °C 39.0 °F /  3.9 °C 29.59 in /  1001.9 hPa ESE 1.0 mph /  1.6 km/h 3.0 mph /  4.8 km/h 84 % 0.00 in /  0 mm 309 W/m2
09:19 43.9 °F /  6.6 °C 39.1 °F /  3.9 °C 29.60 in /  1002.3 hPa ESE 1.0 mph /  1.6 km/h 3.0 mph /  4.8 km/h 83 % 0.00 in /  0 mm 278 W/m2
09:24 43.9 °F /  6.6 °C 38.7 °F /  3.7 °C 29.60 in /  1002.3 hPa ESE 2.0 mph /  3.2 km/h 5.0 mph /  8 km/h 82 % 0.00 in /  0 mm 285 W/m2
09:29 43.9 °F /  6.6 °C 38.7 °F /  3.7 °C 29.60 in /  1002.3 hPa East 2.0 mph /  3.2 km/h 6.0 mph /  9.7 km/h 82 % 0.00 in /  0 mm 376 W/m2
09:34 43.9 °F /  6.6 °C 38.7 °F /  3.7 °C 29.60 in /  1002.3 hPa East 3.0 mph /  4.8 km/h 5.0 mph /  8 km/h 82 % 0.00 in /  0 mm 364 W/m2
09:39 43.9 °F /  6.6 °C 38.7 °F /  3.7 °C 29.60 in /  1002.3 hPa East 3.0 mph /  4.8 km/h 6.0 mph /  9.7 km/h 82 % 0.00 in /  0 mm 427 W/m2
09:44 44.1 °F /  6.7 °C 38.9 °F /  3.8 °C 29.60 in /  1002.3 hPa East 1.0 mph /  1.6 km/h 4.0 mph /  6.4 km/h 82 % 0.00 in /  0 mm 385 W/m2
09:49 44.2 °F /  6.8 °C 39.1 °F /  3.9 °C 29.59 in /  1001.9 hPa East 2.0 mph /  3.2 km/h 5.0 mph /  8 km/h 82 % 0.00 in /  0 mm 425 W/m2
09:54 44.8 °F /  7.1 °C 39.9 °F /  4.4 °C 29.59 in /  1001.9 hPa East 1.0 mph /  1.6 km/h 4.0 mph /  6.4 km/h 83 % 0.00 in /  0 mm 455 W/m2
09:59 45.1 °F /  7.3 °C 39.7 °F /  4.3 °C 29.59 in /  1001.9 hPa East 2.0 mph /  3.2 km/h 4.0 mph /  6.4 km/h 81 % 0.00 in /  0 mm 459 W/m2
10:04 45.5 °F /  7.5 °C 40.0 °F /  4.4 °C 29.59 in /  1001.9 hPa East 3.0 mph /  4.8 km/h 5.0 mph /  8 km/h 81 % 0.00 in /  0 mm 427 W/m2
10:09 45.7 °F /  7.6 °C 39.9 °F /  4.4 °C 29.59 in /  1001.9 hPa East 2.0 mph /  3.2 km/h 5.0 mph /  8 km/h 80 % 0.00 in /  0 mm 359 W/m2
10:14 45.7 °F /  7.6 °C 39.9 °F /  4.4 °C 29.59 in /  1001.9 hPa East 3.0 mph /  4.8 km/h 6.0 mph /  9.7 km/h 80 % 0.00 in /  0 mm 483 W/m2
10:19 46.0 °F /  7.8 °C 40.2 °F /  4.6 °C 29.59 in /  1001.9 hPa SE 4.0 mph /  6.4 km/h 7.0 mph /  11.3 km/h 80 % 0.00 in /  0 mm 515 W/m2
10:24 46.2 °F /  7.9 °C 40.4 °F /  4.7 °C 29.59 in /  1001.9 hPa SE 2.0 mph /  3.2 km/h 7.0 mph /  11.3 km/h 80 % 0.00 in /  0 mm 476 W/m2
10:29 46.6 °F /  8.1 °C 40.4 °F /  4.7 °C 29.59 in /  1001.9 hPa South 2.0 mph /  3.2 km/h 6.0 mph /  9.7 km/h 79 % 0.00 in /  0 mm 408 W/m2
10:34 46.8 °F /  8.2 °C 40.3 °F /  4.6 °C 29.59 in /  1001.9 hPa SSE 3.0 mph /  4.8 km/h 5.0 mph /  8 km/h 78 % 0.00 in /  0 mm 431 W/m2
10:39 46.9 °F /  8.3 °C 40.8 °F /  4.9 °C 29.60 in /  1002.3 hPa SSE 3.0 mph /  4.8 km/h 7.0 mph /  11.3 km/h 79 % 0.00 in /  0 mm 438 W/m2
10:44 47.1 °F /  8.4 °C 40.6 °F /  4.8 °C 29.60 in /  1002.3 hPa SE 4.0 mph /  6.4 km/h 6.0 mph /  9.7 km/h 78 % 0.00 in /  0 mm 478 W/m2
10:49 47.3 °F /  8.5 °C 40.8 °F /  4.9 °C 29.60 in /  1002.3 hPa South 3.0 mph /  4.8 km/h 7.0 mph /  11.3 km/h 78 % 0.00 in /  0 mm 399 W/m2
10:54 47.5 °F /  8.6 °C 40.3 °F /  4.6 °C 29.60 in /  1002.3 hPa ESE 6.0 mph /  9.7 km/h 10.0 mph /  16.1 km/h 76 % 0.00 in /  0 mm 476 W/m2
10:59 47.5 °F /  8.6 °C 40.3 °F /  4.6 °C 29.60 in /  1002.3 hPa SSE 3.0 mph /  4.8 km/h 6.0 mph /  9.7 km/h 76 % 0.00 in /  0 mm 394 W/m2
11:04 47.7 °F /  8.7 °C 40.1 °F /  4.5 °C 29.60 in /  1002.3 hPa SE 6.0 mph /  9.7 km/h 8.0 mph /  12.9 km/h 75 % 0.00 in /  0 mm 710 W/m2
11:09 48.0 °F /  8.9 °C 39.8 °F /  4.3 °C 29.60 in /  1002.3 hPa SSE 7.0 mph /  11.3 km/h 11.0 mph /  17.7 km/h 73 % 0.00 in /  0 mm 668 W/m2
11:14 48.2 °F /  9 °C 39.9 °F /  4.4 °C 29.59 in /  1001.9 hPa SSE 6.0 mph /  9.7 km/h 12.0 mph /  19.3 km/h 73 % 0.00 in /  0 mm 659 W/m2
11:19 48.4 °F /  9.1 °C 39.8 °F /  4.3 °C 29.59 in /  1001.9 hPa SSE 4.0 mph /  6.4 km/h 8.0 mph /  12.9 km/h 72 % 0.00 in /  0 mm 550 W/m2
11:24 48.7 °F /  9.3 °C 40.1 °F /  4.5 °C 29.59 in /  1001.9 hPa SSE 4.0 mph /  6.4 km/h 8.0 mph /  12.9 km/h 72 % 0.00 in /  0 mm 652 W/m2
11:29 49.3 °F /  9.6 °C 40.3 °F /  4.6 °C 29.58 in /  1001.6 hPa South 6.0 mph /  9.7 km/h 8.0 mph /  12.9 km/h 71 % 0.00 in /  0 mm 515 W/m2
11:34 49.3 °F /  9.6 °C 39.9 °F /  4.4 °C 29.58 in /  1001.6 hPa SSE 5.0 mph /  8 km/h 10.0 mph /  16.1 km/h 70 % 0.00 in /  0 mm 675 W/m2
11:39 49.5 °F /  9.7 °C 39.7 °F /  4.3 °C 29.58 in /  1001.6 hPa SSE 3.0 mph /  4.8 km/h 8.0 mph /  12.9 km/h 69 % 0.00 in /  0 mm 411 W/m2
11:44 49.6 °F /  9.8 °C 40.6 °F /  4.8 °C 29.58 in /  1001.6 hPa South 5.0 mph /  8 km/h 7.0 mph /  11.3 km/h 71 % 0.00 in /  0 mm 640 W/m2
11:49 50.0 °F /  10 °C 40.2 °F /  4.6 °C 29.58 in /  1001.6 hPa South 6.0 mph /  9.7 km/h 14.0 mph /  22.5 km/h 69 % 0.00 in /  0 mm 624 W/m2
11:54 49.8 °F /  9.9 °C 39.3 °F /  4.1 °C 29.58 in /  1001.6 hPa SSE 6.0 mph /  9.7 km/h 9.0 mph /  14.5 km/h 67 % 0.00 in /  0 mm 647 W/m2
11:59 50.2 °F /  10.1 °C 40.0 °F /  4.4 °C 29.58 in /  1001.6 hPa SSW 6.0 mph /  9.7 km/h 10.0 mph /  16.1 km/h 68 % 0.00 in /  0 mm 703 W/m2
12:04 50.2 °F /  10.1 °C 39.6 °F /  4.2 °C 29.58 in /  1001.6 hPa SSE 7.0 mph /  11.3 km/h 10.0 mph /  16.1 km/h 67 % 0.00 in /  0 mm 670 W/m2
12:09 50.4 °F /  10.2 °C 39.8 °F /  4.3 °C 29.58 in /  1001.6 hPa South 6.0 mph /  9.7 km/h 10.0 mph /  16.1 km/h 67 % 0.00 in /  0 mm 635 W/m2
12:14 50.5 °F /  10.3 °C 39.6 °F /  4.2 °C 29.58 in /  1001.6 hPa SSW 6.0 mph /  9.7 km/h 9.0 mph /  14.5 km/h 66 % 0.00 in /  0 mm 294 W/m2
12:19 50.5 °F /  10.3 °C 39.6 °F /  4.2 °C 29.58 in /  1001.6 hPa SSW 8.0 mph /  12.9 km/h 12.0 mph /  19.3 km/h 66 % 0.00 in /  0 mm 515 W/m2
12:24 50.2 °F /  10.1 °C 38.9 °F /  3.8 °C 29.57 in /  1001.2 hPa SSW 7.0 mph /  11.3 km/h 10.0 mph /  16.1 km/h 65 % 0.00 in /  0 mm 383 W/m2
12:29 49.8 °F /  9.9 °C 38.5 °F /  3.6 °C 29.57 in /  1001.2 hPa South 8.0 mph /  12.9 km/h 11.0 mph /  17.7 km/h 65 % 0.00 in /  0 mm 522 W/m2
12:34 50.2 °F /  10.1 °C 39.3 °F /  4.1 °C 29.57 in /  1001.2 hPa South 6.0 mph /  9.7 km/h 10.0 mph /  16.1 km/h 66 % 0.00 in /  0 mm 624 W/m2
12:39 50.4 °F /  10.2 °C 39.0 °F /  3.9 °C 29.57 in /  1001.2 hPa South 7.0 mph /  11.3 km/h 12.0 mph /  19.3 km/h 65 % 0.00 in /  0 mm 666 W/m2
12:44 50.2 °F /  10.1 °C 38.1 °F /  3.4 °C 29.57 in /  1001.2 hPa SSW 9.0 mph /  14.5 km/h 12.0 mph /  19.3 km/h 63 % 0.00 in /  0 mm 427 W/m2
12:49 50.2 °F /  10.1 °C 38.5 °F /  3.6 °C 29.57 in /  1001.2 hPa SSW 7.0 mph /  11.3 km/h 11.0 mph /  17.7 km/h 64 % 0.00 in /  0 mm 265 W/m2
12:54 49.6 °F /  9.8 °C 38.0 °F /  3.3 °C 29.56 in /  1000.9 hPa SSW 7.0 mph /  11.3 km/h 10.0 mph /  16.1 km/h 64 % 0.00 in /  0 mm 329 W/m2
12:59 49.3 °F /  9.6 °C 38.0 °F /  3.3 °C 29.56 in /  1000.9 hPa SSW 7.0 mph /  11.3 km/h 11.0 mph /  17.7 km/h 65 % 0.00 in /  0 mm 279 W/m2
13:04 49.1 °F /  9.5 °C 38.2 °F /  3.4 °C 29.56 in /  1000.9 hPa South 4.0 mph /  6.4 km/h 8.0 mph /  12.9 km/h 66 % 0.00 in /  0 mm 357 W/m2
13:09 49.1 °F /  9.5 °C 38.2 °F /  3.4 °C 29.56 in /  1000.9 hPa SSE 3.0 mph /  4.8 km/h 9.0 mph /  14.5 km/h 66 % 0.00 in /  0 mm 408 W/m2
13:14 49.5 °F /  9.7 °C 39.0 °F /  3.9 °C 29.56 in /  1000.9 hPa SSW 6.0 mph /  9.7 km/h 10.0 mph /  16.1 km/h 67 % 0.00 in /  0 mm 320 W/m2
13:19 49.5 °F /  9.7 °C 38.6 °F /  3.7 °C 29.55 in /  1000.6 hPa South 5.0 mph /  8 km/h 8.0 mph /  12.9 km/h 66 % 0.00 in /  0 mm 325 W/m2
13:25 49.5 °F /  9.7 °C 39.0 °F /  3.9 °C 29.55 in /  1000.6 hPa South 6.0 mph /  9.7 km/h 12.0 mph /  19.3 km/h 67 % 0.00 in /  0 mm 308 W/m2
13:30 49.5 °F /  9.7 °C 39.7 °F /  4.3 °C 29.55 in /  1000.6 hPa SE 7.0 mph /  11.3 km/h 10.0 mph /  16.1 km/h 69 % 0.00 in /  0 mm 385 W/m2
13:35 49.6 °F /  9.8 °C 39.9 °F /  4.4 °C 29.56 in /  1000.9 hPa SE 8.0 mph /  12.9 km/h 14.0 mph /  22.5 km/h 69 % 0.00 in /  0 mm 480 W/m2
13:40 49.6 °F /  9.8 °C 39.5 °F /  4.2 °C 29.55 in /  1000.6 hPa SE 8.0 mph /  12.9 km/h 11.0 mph /  17.7 km/h 68 % 0.00 in /  0 mm 571 W/m2
13:45 49.8 °F /  9.9 °C 39.3 °F /  4.1 °C 29.55 in /  1000.6 hPa SE 8.0 mph /  12.9 km/h 13.0 mph /  20.9 km/h 67 % 0.00 in /  0 mm 680 W/m2
13:50 50.4 °F /  10.2 °C 39.8 °F /  4.3 °C 29.54 in /  1000.2 hPa SSE 6.0 mph /  9.7 km/h 9.0 mph /  14.5 km/h 67 % 0.00 in /  0 mm 594 W/m2
13:55 50.7 °F /  10.4 °C 39.4 °F /  4.1 °C 29.54 in /  1000.2 hPa SE 8.0 mph /  12.9 km/h 12.0 mph /  19.3 km/h 65 % 0.00 in /  0 mm 584 W/m2
14:00 50.9 °F /  10.5 °C 39.1 °F /  3.9 °C 29.54 in /  1000.2 hPa South 6.0 mph /  9.7 km/h 10.0 mph /  16.1 km/h 64 % 0.00 in /  0 mm 457 W/m2
14:05 50.9 °F /  10.5 °C 39.1 °F /  3.9 °C 29.54 in /  1000.2 hPa SE 8.0 mph /  12.9 km/h 12.0 mph /  19.3 km/h 64 % 0.00 in /  0 mm 504 W/m2
14:10 50.9 °F /  10.5 °C 39.1 °F /  3.9 °C 29.54 in /  1000.2 hPa SE 9.0 mph /  14.5 km/h 12.0 mph /  19.3 km/h 64 % 0.00 in /  0 mm 244 W/m2
14:15 50.2 °F /  10.1 °C 38.5 °F /  3.6 °C 29.54 in /  1000.2 hPa SE 9.0 mph /  14.5 km/h 13.0 mph /  20.9 km/h 64 % 0.00 in /  0 mm 214 W/m2
14:20 49.6 °F /  9.8 °C 38.3 °F /  3.5 °C 29.54 in /  1000.2 hPa SSE 9.0 mph /  14.5 km/h 13.0 mph /  20.9 km/h 65 % 0.00 in /  0 mm 230 W/m2
14:25 49.1 °F /  9.5 °C 38.2 °F /  3.4 °C 29.53 in /  999.9 hPa SSE 9.0 mph /  14.5 km/h 12.0 mph /  19.3 km/h 66 % 0.00 in /  0 mm 218 W/m2
14:30 48.9 °F /  9.4 °C 38.1 °F /  3.4 °C 29.54 in /  1000.2 hPa SSE 6.0 mph /  9.7 km/h 11.0 mph /  17.7 km/h 66 % 0.00 in /  0 mm 232 W/m2
14:35 48.7 °F /  9.3 °C 37.5 °F /  3.1 °C 29.54 in /  1000.2 hPa SSE 8.0 mph /  12.9 km/h 13.0 mph /  20.9 km/h 65 % 0.00 in /  0 mm 248 W/m2
14:40 48.7 °F /  9.3 °C 37.5 °F /  3.1 °C 29.54 in /  1000.2 hPa SSE 8.0 mph /  12.9 km/h 14.0 mph /  22.5 km/h 65 % 0.00 in /  0 mm 229 W/m2
14:45 48.7 °F /  9.3 °C 38.3 °F /  3.5 °C 29.54 in /  1000.2 hPa SE 8.0 mph /  12.9 km/h 14.0 mph /  22.5 km/h 67 % 0.00 in /  0 mm 192 W/m2
14:50 48.7 °F /  9.3 °C 38.6 °F /  3.7 °C 29.53 in /  999.9 hPa SSE 8.0 mph /  12.9 km/h 14.0 mph /  22.5 km/h 68 % 0.00 in /  0 mm 169 W/m2
14:55 48.6 °F /  9.2 °C 38.5 °F /  3.6 °C 29.53 in /  999.9 hPa South 6.0 mph /  9.7 km/h 11.0 mph /  17.7 km/h 68 % 0.00 in /  0 mm 149 W/m2
15:00 48.6 °F /  9.2 °C 38.8 °F /  3.8 °C 29.53 in /  999.9 hPa SSE 5.0 mph /  8 km/h 9.0 mph /  14.5 km/h 69 % 0.00 in /  0 mm 155 W/m2
15:05 48.4 °F /  9.1 °C 38.7 °F /  3.7 °C 29.53 in /  999.9 hPa SSE 6.0 mph /  9.7 km/h 9.0 mph /  14.5 km/h 69 % 0.00 in /  0 mm 149 W/m2
15:10 48.4 °F /  9.1 °C 39.0 °F /  3.9 °C 29.53 in /  999.9 hPa SSE 5.0 mph /  8 km/h 8.0 mph /  12.9 km/h 70 % 0.00 in /  0 mm 139 W/m2
15:15 48.4 °F /  9.1 °C 39.4 °F /  4.1 °C 29.52 in /  999.5 hPa SSE 6.0 mph /  9.7 km/h 9.0 mph /  14.5 km/h 71 % 0.00 in /  0 mm 134 W/m2
15:20 48.4 °F /  9.1 °C 39.4 °F /  4.1 °C 29.53 in /  999.9 hPa SSE 7.0 mph /  11.3 km/h 10.0 mph /  16.1 km/h 71 % 0.00 in /  0 mm 111 W/m2
15:25 48.2 °F /  9 °C 39.6 °F /  4.2 °C 29.52 in /  999.5 hPa South 6.0 mph /  9.7 km/h 10.0 mph /  16.1 km/h 72 % 0.00 in /  0 mm 107 W/m2
15:30 48.0 °F /  8.9 °C 39.8 °F /  4.3 °C 29.52 in /  999.5 hPa SSE 5.0 mph /  8 km/h 8.0 mph /  12.9 km/h 73 % 0.00 in /  0 mm 109 W/m2
15:35 48.0 °F /  8.9 °C 40.1 °F /  4.5 °C 29.52 in /  999.5 hPa SE 6.0 mph /  9.7 km/h 10.0 mph /  16.1 km/h 74 % 0.00 in /  0 mm 104 W/m2
15:40 48.0 °F /  8.9 °C 40.1 °F /  4.5 °C 29.52 in /  999.5 hPa SE 6.0 mph /  9.7 km/h 9.0 mph /  14.5 km/h 74 % 0.00 in /  0 mm 90 W/m2
15:45 48.0 °F /  8.9 °C 40.1 °F /  4.5 °C 29.52 in /  999.5 hPa SE 7.0 mph /  11.3 km/h 10.0 mph /  16.1 km/h 74 % 0.00 in /  0 mm 70 W/m2
15:50 47.8 °F /  8.8 °C 40.0 °F /  4.4 °C 29.52 in /  999.5 hPa SSE 7.0 mph /  11.3 km/h 10.0 mph /  16.1 km/h 74 % 0.00 in /  0 mm 67 W/m2
15:55 47.8 °F /  8.8 °C 40.0 °F /  4.4 °C 29.52 in /  999.5 hPa SSE 7.0 mph /  11.3 km/h 9.0 mph /  14.5 km/h 74 % 0.00 in /  0 mm 77 W/m2
16:00 47.7 °F /  8.7 °C 39.4 °F /  4.1 °C 29.51 in /  999.2 hPa SE 7.0 mph /  11.3 km/h 10.0 mph /  16.1 km/h 73 % 0.00 in /  0 mm 83 W/m2
16:05 47.7 °F /  8.7 °C 39.4 °F /  4.1 °C 29.52 in /  999.5 hPa SE 6.0 mph /  9.7 km/h 9.0 mph /  14.5 km/h 73 % 0.00 in /  0 mm 86 W/m2
16:10 47.7 °F /  8.7 °C 39.4 °F /  4.1 °C 29.51 in /  999.2 hPa SSE 5.0 mph /  8 km/h 9.0 mph /  14.5 km/h 73 % 0.00 in /  0 mm 90 W/m2
16:15 47.7 °F /  8.7 °C 39.4 °F /  4.1 °C 29.51 in /  999.2 hPa SE 6.0 mph /  9.7 km/h 10.0 mph /  16.1 km/h 73 % 0.00 in /  0 mm 84 W/m2
16:20 47.7 °F /  8.7 °C 39.4 °F /  4.1 °C 29.51 in /  999.2 hPa ESE 6.0 mph /  9.7 km/h 10.0 mph /  16.1 km/h 73 % 0.00 in /  0 mm 74 W/m2
16:25 47.5 °F /  8.6 °C 39.3 °F /  4.1 °C 29.51 in /  999.2 hPa SSE 6.0 mph /  9.7 km/h 10.0 mph /  16.1 km/h 73 % 0.00 in /  0 mm 69 W/m2
16:30 47.5 °F /  8.6 °C 39.6 °F /  4.2 °C 29.51 in /  999.2 hPa SE 5.0 mph /  8 km/h 10.0 mph /  16.1 km/h 74 % 0.00 in /  0 mm 72 W/m2
16:35 47.5 °F /  8.6 °C 39.3 °F /  4.1 °C 29.50 in /  998.9 hPa SE 5.0 mph /  8 km/h 7.0 mph /  11.3 km/h 73 % 0.00 in /  0 mm 69 W/m2
16:40 47.5 °F /  8.6 °C 39.6 °F /  4.2 °C 29.50 in /  998.9 hPa ESE 6.0 mph /  9.7 km/h 9.0 mph /  14.5 km/h 74 % 0.00 in /  0 mm 62 W/m2
16:45 47.3 °F /  8.5 °C 39.8 °F /  4.3 °C 29.50 in /  998.9 hPa SE 6.0 mph /  9.7 km/h 9.0 mph /  14.5 km/h 75 % 0.00 in /  0 mm 54 W/m2
16:50 47.1 °F /  8.4 °C 39.6 °F /  4.2 °C 29.50 in /  998.9 hPa SE 6.0 mph /  9.7 km/h 8.0 mph /  12.9 km/h 75 % 0.00 in /  0 mm 49 W/m2
16:55 47.1 °F /  8.4 °C 39.9 °F /  4.4 °C 29.50 in /  998.9 hPa ESE 6.0 mph /  9.7 km/h 10.0 mph /  16.1 km/h 76 % 0.00 in /  0 mm 39 W/m2
17:00 46.9 °F /  8.3 °C 39.8 °F /  4.3 °C 29.50 in /  998.9 hPa SE 6.0 mph /  9.7 km/h 8.0 mph /  12.9 km/h 76 % 0.00 in /  0 mm 30 W/m2
17:06 46.9 °F /  8.3 °C 40.1 °F /  4.5 °C 29.51 in /  999.2 hPa SE 4.0 mph /  6.4 km/h 8.0 mph /  12.9 km/h 77 % 0.00 in /  0 mm 25 W/m2
17:11 46.9 °F /  8.3 °C 40.1 °F /  4.5 °C 29.51 in /  999.2 hPa SE 6.0 mph /  9.7 km/h 10.0 mph /  16.1 km/h 77 % 0.00 in /  0 mm 21 W/m2
17:16 46.8 °F /  8.2 °C 39.9 °F /  4.4 °C 29.50 in /  998.9 hPa SE 3.0 mph /  4.8 km/h 8.0 mph /  12.9 km/h 77 % 0.00 in /  0 mm 18 W/m2
17:21 46.8 °F /  8.2 °C 40.3 °F /  4.6 °C 29.50 in /  998.9 hPa SE 4.0 mph /  6.4 km/h 8.0 mph /  12.9 km/h 78 % 0.00 in /  0 mm 16 W/m2
17:26 46.8 °F /  8.2 °C 39.9 °F /  4.4 °C 29.50 in /  998.9 hPa ESE 6.0 mph /  9.7 km/h 9.0 mph /  14.5 km/h 77 % 0.00 in /  0 mm 14 W/m2
17:31 46.6 °F /  8.1 °C 40.1 °F /  4.5 °C 29.50 in /  998.9 hPa ESE 5.0 mph /  8 km/h 9.0 mph /  14.5 km/h 78 % 0.00 in /  0 mm 12 W/m2
17:36 46.6 °F /  8.1 °C 40.1 °F /  4.5 °C 29.50 in /  998.9 hPa ESE 3.0 mph /  4.8 km/h 7.0 mph /  11.3 km/h 78 % 0.00 in /  0 mm 11 W/m2
17:41 46.6 °F /  8.1 °C 40.1 °F /  4.5 °C 29.50 in /  998.9 hPa ESE 6.0 mph /  9.7 km/h 8.0 mph /  12.9 km/h 78 % 0.00 in /  0 mm 7 W/m2
17:46 46.4 °F /  8 °C 39.9 °F /  4.4 °C 29.50 in /  998.9 hPa ESE 4.0 mph /  6.4 km/h 6.0 mph /  9.7 km/h 78 % 0.00 in /  0 mm 5 W/m2
17:51 46.4 °F /  8 °C 40.2 °F /  4.6 °C 29.50 in /  998.9 hPa ESE 5.0 mph /  8 km/h 8.0 mph /  12.9 km/h 79 % 0.00 in /  0 mm 0 W/m2
17:56 46.2 °F /  7.9 °C 40.1 °F /  4.5 °C 29.50 in /  998.9 hPa ESE 5.0 mph /  8 km/h 8.0 mph /  12.9 km/h 79 % 0.00 in /  0 mm 0 W/m2
18:01 46.2 °F /  7.9 °C 40.1 °F /  4.5 °C 29.50 in /  998.9 hPa ESE 5.0 mph /  8 km/h 9.0 mph /  14.5 km/h 79 % 0.00 in /  0 mm 0 W/m2
18:06 46.0 °F /  7.8 °C 40.2 °F /  4.6 °C 29.49 in /  998.5 hPa ESE 6.0 mph /  9.7 km/h 9.0 mph /  14.5 km/h 80 % 0.00 in /  0 mm 0 W/m2
18:11 46.0 °F /  7.8 °C 40.2 °F /  4.6 °C 29.49 in /  998.5 hPa ESE 6.0 mph /  9.7 km/h 9.0 mph /  14.5 km/h 80 % 0.00 in /  0 mm 0 W/m2
18:16 46.0 °F /  7.8 °C 40.5 °F /  4.7 °C 29.49 in /  998.5 hPa ESE 8.0 mph /  12.9 km/h 10.0 mph /  16.1 km/h 81 % 0.00 in /  0 mm 0 W/m2
18:21 45.9 °F /  7.7 °C 40.4 °F /  4.7 °C 29.49 in /  998.5 hPa ESE 7.0 mph /  11.3 km/h 12.0 mph /  19.3 km/h 81 % 0.00 in /  0 mm 0 W/m2
18:26 45.9 °F /  7.7 °C 40.7 °F /  4.8 °C 29.49 in /  998.5 hPa ESE 6.0 mph /  9.7 km/h 10.0 mph /  16.1 km/h 82 % 0.00 in /  0 mm 0 W/m2
18:31 45.7 °F /  7.6 °C 40.5 °F /  4.7 °C 29.49 in /  998.5 hPa ESE 5.0 mph /  8 km/h 8.0 mph /  12.9 km/h 82 % 0.00 in /  0 mm 0 W/m2
18:36 45.7 °F /  7.6 °C 40.8 °F /  4.9 °C 29.49 in /  998.5 hPa ESE 6.0 mph /  9.7 km/h 10.0 mph /  16.1 km/h 83 % 0.00 in /  0 mm 0 W/m2
18:41 45.7 °F /  7.6 °C 40.8 °F /  4.9 °C 29.49 in /  998.5 hPa ESE 7.0 mph /  11.3 km/h 12.0 mph /  19.3 km/h 83 % 0.00 in /  0 mm 0 W/m2
18:46 45.5 °F /  7.5 °C 40.6 °F /  4.8 °C 29.48 in /  998.2 hPa ESE 5.0 mph /  8 km/h 8.0 mph /  12.9 km/h 83 % 0.00 in /  0 mm 0 W/m2
18:51 45.5 °F /  7.5 °C 40.9 °F /  4.9 °C 29.48 in /  998.2 hPa ESE 7.0 mph /  11.3 km/h 10.0 mph /  16.1 km/h 84 % 0.00 in /  0 mm 0 W/m2
18:56 45.3 °F /  7.4 °C 40.8 °F /  4.9 °C 29.48 in /  998.2 hPa ESE 5.0 mph /  8 km/h 9.0 mph /  14.5 km/h 84 % 0.00 in /  0 mm 0 W/m2
19:01 45.3 °F /  7.4 °C 41.1 °F /  5.1 °C 29.48 in /  998.2 hPa ESE 7.0 mph /  11.3 km/h 11.0 mph /  17.7 km/h 85 % 0.00 in /  0 mm 0 W/m2
19:06 45.1 °F /  7.3 °C 40.9 °F /  4.9 °C 29.48 in /  998.2 hPa ESE 7.0 mph /  11.3 km/h 10.0 mph /  16.1 km/h 85 % 0.00 in /  0 mm 0 W/m2
19:11 45.1 °F /  7.3 °C 41.2 °F /  5.1 °C 29.47 in /  997.9 hPa ESE 7.0 mph /  11.3 km/h 10.0 mph /  16.1 km/h 86 % 0.00 in /  0 mm 0 W/m2
19:16 45.0 °F /  7.2 °C 41.0 °F /  5 °C 29.47 in /  997.9 hPa ESE 7.0 mph /  11.3 km/h 10.0 mph /  16.1 km/h 86 % 0.00 in /  0 mm 0 W/m2
19:21 44.8 °F /  7.1 °C 41.1 °F /  5.1 °C 29.47 in /  997.9 hPa ESE 8.0 mph /  12.9 km/h 10.0 mph /  16.1 km/h 87 % 0.00 in /  0 mm 0 W/m2
19:26 44.8 °F /  7.1 °C 41.1 °F /  5.1 °C 29.47 in /  997.9 hPa ESE 7.0 mph /  11.3 km/h 10.0 mph /  16.1 km/h 87 % 0.00 in /  0 mm 0 W/m2
19:31 44.8 °F /  7.1 °C 41.1 °F /  5.1 °C 29.47 in /  997.9 hPa ESE 6.0 mph /  9.7 km/h 10.0 mph /  16.1 km/h 87 % 0.00 in /  0 mm 0 W/m2
19:36 44.6 °F /  7 °C 41.3 °F /  5.2 °C 29.47 in /  997.9 hPa ESE 5.0 mph /  8 km/h 8.0 mph /  12.9 km/h 88 % 0.00 in /  0 mm 0 W/m2
19:41 44.4 °F /  6.9 °C 41.1 °F /  5.1 °C 29.47 in /  997.9 hPa ESE 5.0 mph /  8 km/h 9.0 mph /  14.5 km/h 88 % 0.00 in /  0 mm 0 W/m2
19:46 44.4 °F /  6.9 °C 41.1 °F /  5.1 °C 29.47 in /  997.9 hPa ESE 6.0 mph /  9.7 km/h 8.0 mph /  12.9 km/h 88 % 0.00 in /  0 mm 0 W/m2
19:51 44.2 °F /  6.8 °C 40.9 °F /  4.9 °C 29.47 in /  997.9 hPa ESE 6.0 mph /  9.7 km/h 10.0 mph /  16.1 km/h 88 % 0.00 in /  0 mm 0 W/m2
19:56 44.2 °F /  6.8 °C 41.2 °F /  5.1 °C 29.47 in /  997.9 hPa ESE 7.0 mph /  11.3 km/h 11.0 mph /  17.7 km/h 89 % 0.00 in /  0 mm 0 W/m2
20:01 44.1 °F /  6.7 °C 41.0 °F /  5 °C 29.46 in /  997.5 hPa ESE 4.0 mph /  6.4 km/h 8.0 mph /  12.9 km/h 89 % 0.00 in /  0 mm 0 W/m2
20:06 44.1 °F /  6.7 °C 41.0 °F /  5 °C 29.46 in /  997.5 hPa ESE 6.0 mph /  9.7 km/h 10.0 mph /  16.1 km/h 89 % 0.00 in /  0 mm 0 W/m2
20:11 43.9 °F /  6.6 °C 41.1 °F /  5.1 °C 29.46 in /  997.5 hPa ESE 4.0 mph /  6.4 km/h 7.0 mph /  11.3 km/h 90 % 0.00 in /  0 mm 0 W/m2
20:16 43.9 °F /  6.6 °C 41.1 °F /  5.1 °C 29.46 in /  997.5 hPa ESE 4.0 mph /  6.4 km/h 7.0 mph /  11.3 km/h 90 % 0.00 in /  0 mm 0 W/m2
20:21 43.7 °F /  6.5 °C 41.0 °F /  5 °C 29.45 in /  997.2 hPa ESE 6.0 mph /  9.7 km/h 8.0 mph /  12.9 km/h 90 % 0.01 in /  0.25 mm 0 W/m2
20:26 43.5 °F /  6.4 °C 41.1 °F /  5.1 °C 29.45 in /  997.2 hPa ESE 5.0 mph /  8 km/h 8.0 mph /  12.9 km/h 91 % 0.01 in /  0.25 mm 0 W/m2
20:31 43.5 °F /  6.4 °C 41.1 °F /  5.1 °C 29.45 in /  997.2 hPa ESE 6.0 mph /  9.7 km/h 9.0 mph /  14.5 km/h 91 % 0.01 in /  0.25 mm 0 W/m2
20:36 43.5 °F /  6.4 °C 41.1 °F /  5.1 °C 29.45 in /  997.2 hPa ESE 5.0 mph /  8 km/h 8.0 mph /  12.9 km/h 91 % 0.01 in /  0.25 mm 0 W/m2
20:41 43.3 °F /  6.3 °C 41.2 °F /  5.1 °C 29.45 in /  997.2 hPa SE 3.0 mph /  4.8 km/h 6.0 mph /  9.7 km/h 92 % 0.01 in /  0.25 mm 0 W/m2
20:46 43.3 °F /  6.3 °C 41.2 °F /  5.1 °C 29.44 in /  996.8 hPa ESE 4.0 mph /  6.4 km/h 8.0 mph /  12.9 km/h 92 % 0.01 in /  0.25 mm 0 W/m2
20:51 43.3 °F /  6.3 °C 41.2 °F /  5.1 °C 29.44 in /  996.8 hPa ESE 4.0 mph /  6.4 km/h 8.0 mph /  12.9 km/h 92 % 0.01 in /  0.25 mm 0 W/m2
20:56 43.2 °F /  6.2 °C 41.0 °F /  5 °C 29.44 in /  996.8 hPa ESE 6.0 mph /  9.7 km/h 8.0 mph /  12.9 km/h 92 % 0.01 in /  0.25 mm 0 W/m2
21:01 43.2 °F /  6.2 °C 41.3 °F /  5.2 °C 29.44 in /  996.8 hPa ESE 6.0 mph /  9.7 km/h 12.0 mph /  19.3 km/h 93 % 0.02 in /  0.51 mm 0 W/m2
21:06 43.0 °F /  6.1 °C 41.1 °F /  5.1 °C 29.44 in /  996.8 hPa ESE 6.0 mph /  9.7 km/h 10.0 mph /  16.1 km/h 93 % 0.02 in /  0.51 mm 0 W/m2
21:11 43.0 °F /  6.1 °C 41.1 °F /  5.1 °C 29.44 in /  996.8 hPa East 5.0 mph /  8 km/h 9.0 mph /  14.5 km/h 93 % 0.02 in /  0.51 mm 0 W/m2
21:16 42.8 °F /  6 °C 40.9 °F /  4.9 °C 29.43 in /  996.5 hPa ESE 7.0 mph /  11.3 km/h 11.0 mph /  17.7 km/h 93 % 0.02 in /  0.51 mm 0 W/m2
21:21 42.8 °F /  6 °C 40.9 °F /  4.9 °C 29.43 in /  996.5 hPa ESE 6.0 mph /  9.7 km/h 9.0 mph /  14.5 km/h 93 % 0.02 in /  0.51 mm 0 W/m2
21:26 42.8 °F /  6 °C 40.9 °F /  4.9 °C 29.43 in /  996.5 hPa ESE 4.0 mph /  6.4 km/h 8.0 mph /  12.9 km/h 93 % 0.02 in /  0.51 mm 0 W/m2
21:31 42.6 °F /  5.9 °C 40.7 °F /  4.8 °C 29.42 in /  996.2 hPa ESE 4.0 mph /  6.4 km/h 7.0 mph /  11.3 km/h 93 % 0.03 in /  0.76 mm 0 W/m2
21:36 42.6 °F /  5.9 °C 41.0 °F /  5 °C 29.42 in /  996.2 hPa ESE 3.0 mph /  4.8 km/h 8.0 mph /  12.9 km/h 94 % 0.03 in /  0.76 mm 0 W/m2
21:42 42.4 °F /  5.8 °C 40.8 °F /  4.9 °C 29.42 in /  996.2 hPa East 5.0 mph /  8 km/h 7.0 mph /  11.3 km/h 94 % 0.03 in /  0.76 mm 0 W/m2
21:47 42.4 °F /  5.8 °C 40.8 °F /  4.9 °C 29.42 in /  996.2 hPa ESE 4.0 mph /  6.4 km/h 8.0 mph /  12.9 km/h 94 % 0.04 in /  1.02 mm 0 W/m2
21:52 42.4 °F /  5.8 °C 40.8 °F /  4.9 °C 29.42 in /  996.2 hPa East 3.0 mph /  4.8 km/h 6.0 mph /  9.7 km/h 94 % 0.04 in /  1.02 mm 0 W/m2
21:57 42.3 °F /  5.7 °C 40.7 °F /  4.8 °C 29.42 in /  996.2 hPa East 5.0 mph /  8 km/h 7.0 mph /  11.3 km/h 94 % 0.05 in /  1.27 mm 0 W/m2
22:02 42.3 °F /  5.7 °C 40.7 °F /  4.8 °C 29.41 in /  995.8 hPa East 4.0 mph /  6.4 km/h 9.0 mph /  14.5 km/h 94 % 0.04 in /  1.02 mm 0 W/m2
22:07 42.3 °F /  5.7 °C 40.7 °F /  4.8 °C 29.41 in /  995.8 hPa ESE 5.0 mph /  8 km/h 8.0 mph /  12.9 km/h 94 % 0.05 in /  1.27 mm 0 W/m2
22:12 42.3 °F /  5.7 °C 40.9 °F /  4.9 °C 29.41 in /  995.8 hPa ESE 5.0 mph /  8 km/h 9.0 mph /  14.5 km/h 95 % 0.04 in /  1.02 mm 0 W/m2
22:17 42.3 °F /  5.7 °C 40.9 °F /  4.9 °C 29.41 in /  995.8 hPa ESE 5.0 mph /  8 km/h 8.0 mph /  12.9 km/h 95 % 0.05 in /  1.27 mm 0 W/m2
22:22 42.1 °F /  5.6 °C 40.8 °F /  4.9 °C 29.41 in /  995.8 hPa East 3.0 mph /  4.8 km/h 8.0 mph /  12.9 km/h 95 % 0.05 in /  1.27 mm 0 W/m2
22:27 42.1 °F /  5.6 °C 40.8 °F /  4.9 °C 29.41 in /  995.8 hPa East 5.0 mph /  8 km/h 9.0 mph /  14.5 km/h 95 % 0.04 in /  1.02 mm 0 W/m2
22:32 42.1 °F /  5.6 °C 40.8 °F /  4.9 °C 29.40 in /  995.5 hPa ESE 3.0 mph /  4.8 km/h 7.0 mph /  11.3 km/h 95 % 0.03 in /  0.76 mm 0 W/m2
22:37 42.1 °F /  5.6 °C 40.8 °F /  4.9 °C 29.40 in /  995.5 hPa East 4.0 mph /  6.4 km/h 9.0 mph /  14.5 km/h 95 % 0.04 in /  1.02 mm 0 W/m2
22:42 42.1 °F /  5.6 °C 40.8 °F /  4.9 °C 29.40 in /  995.5 hPa East 4.0 mph /  6.4 km/h 6.0 mph /  9.7 km/h 95 % 0.05 in /  1.27 mm 0 W/m2
22:47 42.1 °F /  5.6 °C 40.8 °F /  4.9 °C 29.39 in /  995.1 hPa East 4.0 mph /  6.4 km/h 7.0 mph /  11.3 km/h 95 % 0.04 in /  1.02 mm 0 W/m2
22:52 42.1 °F /  5.6 °C 40.8 °F /  4.9 °C 29.39 in /  995.1 hPa East 3.0 mph /  4.8 km/h 9.0 mph /  14.5 km/h 95 % 0.04 in /  1.02 mm 0 W/m2
22:57 41.9 °F /  5.5 °C 40.6 °F /  4.8 °C 29.39 in /  995.1 hPa East 4.0 mph /  6.4 km/h 8.0 mph /  12.9 km/h 95 % 0.03 in /  0.76 mm 0 W/m2
23:02 41.9 °F /  5.5 °C 40.6 °F /  4.8 °C 29.39 in /  995.1 hPa East 5.0 mph /  8 km/h 9.0 mph /  14.5 km/h 95 % 0.03 in /  0.76 mm 0 W/m2
23:07 41.9 °F /  5.5 °C 40.6 °F /  4.8 °C 29.38 in /  994.8 hPa East 4.0 mph /  6.4 km/h 6.0 mph /  9.7 km/h 95 % 0.03 in /  0.76 mm 0 W/m2
23:12 41.9 °F /  5.5 °C 40.8 °F /  4.9 °C 29.38 in /  994.8 hPa East 5.0 mph /  8 km/h 8.0 mph /  12.9 km/h 96 % 0.03 in /  0.76 mm 0 W/m2
23:17 41.9 °F /  5.5 °C 40.8 °F /  4.9 °C 29.38 in /  994.8 hPa East 4.0 mph /  6.4 km/h 7.0 mph /  11.3 km/h 96 % 0.03 in /  0.76 mm 0 W/m2
23:22 41.9 °F /  5.5 °C 40.6 °F /  4.8 °C 29.38 in /  994.8 hPa East 5.0 mph /  8 km/h 8.0 mph /  12.9 km/h 95 % 0.04 in /  1.02 mm 0 W/m2
23:27 41.9 °F /  5.5 °C 40.8 °F /  4.9 °C 29.38 in /  994.8 hPa East 3.0 mph /  4.8 km/h 7.0 mph /  11.3 km/h 96 % 0.05 in /  1.27 mm 0 W/m2
23:32 41.9 °F /  5.5 °C 40.6 °F /  4.8 °C 29.37 in /  994.5 hPa East 4.0 mph /  6.4 km/h 8.0 mph /  12.9 km/h 95 % 0.05 in /  1.27 mm 0 W/m2
23:37 41.9 °F /  5.5 °C 40.8 °F /  4.9 °C 29.38 in /  994.8 hPa East 3.0 mph /  4.8 km/h 7.0 mph /  11.3 km/h 96 % 0.05 in /  1.27 mm 0 W/m2
23:42 41.9 °F /  5.5 °C 40.8 °F /  4.9 °C 29.37 in /  994.5 hPa East 3.0 mph /  4.8 km/h 7.0 mph /  11.3 km/h 96 % 0.05 in /  1.27 mm 0 W/m2
23:47 41.9 °F /  5.5 °C 40.8 °F /  4.9 °C 29.37 in /  994.5 hPa East 3.0 mph /  4.8 km/h 7.0 mph /  11.3 km/h 96 % 0.05 in /  1.27 mm 0 W/m2
23:52 41.9 °F /  5.5 °C 40.8 °F /  4.9 °C 29.37 in /  994.5 hPa East 2.0 mph /  3.2 km/h 7.0 mph /  11.3 km/h 96 % 0.06 in /  1.52 mm 0 W/m2
23:57 41.7 °F /  5.4 °C 40.7 °F /  4.8 °C 29.37 in /  994.5 hPa East 2.0 mph /  3.2 km/h 6.0 mph /  9.7 km/h 96 % 0.06 in /  1.52 mm 0 W/m2
Delerius-Weather
Compliments of Weather Underground - 2.25 mb

Data updates at regular intervals.